sensor_id;sensor_type;location;lat;lon;timestamp;P1;durP1;ratioP1;P2;durP2;ratioP2
23228;SDS011;11783;50.350;6.576;2022-09-17T00:00:06;18.33;;;7.15;;
23228;SDS011;11783;50.350;6.576;2022-09-17T00:02:33;12.88;;;6.25;;
23228;SDS011;11783;50.350;6.576;2022-09-17T00:04:58;12.77;;;6.93;;
23228;SDS011;11783;50.350;6.576;2022-09-17T00:07:23;13.77;;;6.07;;
23228;SDS011;11783;50.350;6.576;2022-09-17T00:09:48;16.88;;;6.60;;
23228;SDS011;11783;50.350;6.576;2022-09-17T00:12:14;13.18;;;6.35;;
23228;SDS011;11783;50.350;6.576;2022-09-17T00:14:39;13.75;;;6.32;;
23228;SDS011;11783;50.350;6.576;2022-09-17T00:17:05;10.77;;;6.47;;
23228;SDS011;11783;50.350;6.576;2022-09-17T00:19:30;13.63;;;6.25;;
23228;SDS011;11783;50.350;6.576;2022-09-17T00:21:55;11.23;;;5.88;;
23228;SDS011;11783;50.350;6.576;2022-09-17T00:24:20;14.27;;;6.18;;
23228;SDS011;11783;50.350;6.576;2022-09-17T00:26:46;18.08;;;6.22;;
23228;SDS011;11783;50.350;6.576;2022-09-17T00:29:12;9.32;;;4.63;;
23228;SDS011;11783;50.350;6.576;2022-09-17T00:31:38;10.02;;;5.85;;
23228;SDS011;11783;50.350;6.576;2022-09-17T00:34:04;14.15;;;5.72;;
23228;SDS011;11783;50.350;6.576;2022-09-17T00:36:30;8.60;;;5.63;;
23228;SDS011;11783;50.350;6.576;2022-09-17T00:38:56;10.07;;;5.43;;
23228;SDS011;11783;50.350;6.576;2022-09-17T00:41:25;11.20;;;5.75;;
23228;SDS011;11783;50.350;6.576;2022-09-17T00:43:53;10.85;;;5.57;;
23228;SDS011;11783;50.350;6.576;2022-09-17T00:46:34;13.20;;;5.88;;
23228;SDS011;11783;50.350;6.576;2022-09-17T00:49:14;11.35;;;5.40;;
23228;SDS011;11783;50.350;6.576;2022-09-17T00:51:45;11.48;;;5.30;;
23228;SDS011;11783;50.350;6.576;2022-09-17T00:54:14;12.38;;;5.75;;
23228;SDS011;11783;50.350;6.576;2022-09-17T00:56:40;10.85;;;5.50;;
23228;SDS011;11783;50.350;6.576;2022-09-17T00:59:07;12.30;;;5.47;;
23228;SDS011;11783;50.350;6.576;2022-09-17T01:01:34;10.43;;;5.45;;
23228;SDS011;11783;50.350;6.576;2022-09-17T01:04:00;14.80;;;5.75;;
23228;SDS011;11783;50.350;6.576;2022-09-17T01:06:37;11.65;;;5.20;;
23228;SDS011;11783;50.350;6.576;2022-09-17T01:09:32;9.88;;;6.47;;
23228;SDS011;11783;50.350;6.576;2022-09-17T01:23:09;17.83;;;7.78;;
23228;SDS011;11783;50.350;6.576;2022-09-17T01:34:41;16.92;;;8.60;;
23228;SDS011;11783;50.350;6.576;2022-09-17T01:37:17;14.90;;;7.75;;
23228;SDS011;11783;50.350;6.576;2022-09-17T01:45:11;12.10;;;6.65;;
23228;SDS011;11783;50.350;6.576;2022-09-17T01:50:22;9.95;;;5.85;;
23228;SDS011;11783;50.350;6.576;2022-09-17T01:55:19;13.32;;;5.72;;
23228;SDS011;11783;50.350;6.576;2022-09-17T01:58:49;10.70;;;5.65;;
23228;SDS011;11783;50.350;6.576;2022-09-17T02:00:51;12.95;;;5.88;;
23228;SDS011;11783;50.350;6.576;2022-09-17T02:03:36;10.02;;;5.53;;
23228;SDS011;11783;50.350;6.576;2022-09-17T02:06:07;9.50;;;5.40;;
23228;SDS011;11783;50.350;6.576;2022-09-17T02:08:42;9.20;;;4.72;;
23228;SDS011;11783;50.350;6.576;2022-09-17T02:11:15;13.27;;;5.38;;
23228;SDS011;11783;50.350;6.576;2022-09-17T02:13:44;6.78;;;4.30;;
23228;SDS011;11783;50.350;6.576;2022-09-17T02:16:12;10.50;;;5.07;;
23228;SDS011;11783;50.350;6.576;2022-09-17T02:21:37;7.97;;;3.23;;
23228;SDS011;11783;50.350;6.576;2022-09-17T02:24:15;9.20;;;4.60;;
23228;SDS011;11783;50.350;6.576;2022-09-17T02:26:45;11.57;;;4.72;;
23228;SDS011;11783;50.350;6.576;2022-09-17T02:29:20;8.75;;;4.45;;
23228;SDS011;11783;50.350;6.576;2022-09-17T02:31:50;8.68;;;4.72;;
23228;SDS011;11783;50.350;6.576;2022-09-17T02:34:16;12.05;;;4.90;;
23228;SDS011;11783;50.350;6.576;2022-09-17T02:36:42;11.10;;;5.75;;
23228;SDS011;11783;50.350;6.576;2022-09-17T02:39:08;10.10;;;5.43;;
23228;SDS011;11783;50.350;6.576;2022-09-17T02:41:35;10.88;;;5.10;;
23228;SDS011;11783;50.350;6.576;2022-09-17T02:46:56;14.25;;;5.57;;
23228;SDS011;11783;50.350;6.576;2022-09-17T02:49:33;12.60;;;5.60;;
23228;SDS011;11783;50.350;6.576;2022-09-17T02:52:11;14.90;;;5.97;;
23228;SDS011;11783;50.350;6.576;2022-09-17T02:54:50;14.65;;;6.10;;
23228;SDS011;11783;50.350;6.576;2022-09-17T02:57:46;15.00;;;6.18;;
23228;SDS011;11783;50.350;6.576;2022-09-17T03:00:15;13.35;;;5.50;;
23228;SDS011;11783;50.350;6.576;2022-09-17T03:02:51;16.58;;;6.18;;
23228;SDS011;11783;50.350;6.576;2022-09-17T03:05:18;13.20;;;5.10;;
23228;SDS011;11783;50.350;6.576;2022-09-17T03:07:45;10.10;;;4.88;;
23228;SDS011;11783;50.350;6.576;2022-09-17T03:10:11;15.60;;;5.50;;
23228;SDS011;11783;50.350;6.576;2022-09-17T03:12:37;14.18;;;4.53;;
23228;SDS011;11783;50.350;6.576;2022-09-17T03:15:04;11.05;;;4.35;;
23228;SDS011;11783;50.350;6.576;2022-09-17T03:17:29;11.95;;;4.20;;
23228;SDS011;11783;50.350;6.576;2022-09-17T03:19:55;13.02;;;4.53;;
23228;SDS011;11783;50.350;6.576;2022-09-17T03:22:20;14.10;;;4.28;;
23228;SDS011;11783;50.350;6.576;2022-09-17T03:24:46;10.15;;;4.30;;
23228;SDS011;11783;50.350;6.576;2022-09-17T03:27:11;18.25;;;4.15;;
23228;SDS011;11783;50.350;6.576;2022-09-17T03:29:36;15.77;;;3.90;;
23228;SDS011;11783;50.350;6.576;2022-09-17T03:32:02;10.80;;;4.38;;
23228;SDS011;11783;50.350;6.576;2022-09-17T03:34:28;13.73;;;4.35;;
23228;SDS011;11783;50.350;6.576;2022-09-17T03:36:53;15.38;;;4.35;;
23228;SDS011;11783;50.350;6.576;2022-09-17T03:39:19;10.35;;;4.30;;
23228;SDS011;11783;50.350;6.576;2022-09-17T03:41:44;8.48;;;3.60;;
23228;SDS011;11783;50.350;6.576;2022-09-17T03:44:09;13.77;;;4.35;;
23228;SDS011;11783;50.350;6.576;2022-09-17T03:46:35;12.50;;;3.78;;
23228;SDS011;11783;50.350;6.576;2022-09-17T03:49:01;14.63;;;4.72;;
23228;SDS011;11783;50.350;6.576;2022-09-17T03:51:26;8.43;;;4.20;;
23228;SDS011;11783;50.350;6.576;2022-09-17T03:53:51;11.45;;;4.18;;
23228;SDS011;11783;50.350;6.576;2022-09-17T03:56:17;11.50;;;4.50;;
23228;SDS011;11783;50.350;6.576;2022-09-17T03:58:42;16.08;;;4.78;;
23228;SDS011;11783;50.350;6.576;2022-09-17T04:01:07;13.07;;;4.07;;
23228;SDS011;11783;50.350;6.576;2022-09-17T04:03:33;14.32;;;4.22;;
23228;SDS011;11783;50.350;6.576;2022-09-17T04:05:58;13.48;;;4.18;;
23228;SDS011;11783;50.350;6.576;2022-09-17T04:08:23;10.38;;;4.00;;
23228;SDS011;11783;50.350;6.576;2022-09-17T04:10:49;11.07;;;4.22;;
23228;SDS011;11783;50.350;6.576;2022-09-17T04:13:15;12.90;;;4.25;;
23228;SDS011;11783;50.350;6.576;2022-09-17T04:15:42;10.98;;;3.85;;
23228;SDS011;11783;50.350;6.576;2022-09-17T04:18:09;13.95;;;3.75;;
23228;SDS011;11783;50.350;6.576;2022-09-17T04:20:34;12.35;;;3.70;;
23228;SDS011;11783;50.350;6.576;2022-09-17T04:23:00;13.48;;;4.03;;
23228;SDS011;11783;50.350;6.576;2022-09-17T04:25:26;17.48;;;4.80;;
23228;SDS011;11783;50.350;6.576;2022-09-17T04:27:51;13.05;;;3.40;;
23228;SDS011;11783;50.350;6.576;2022-09-17T04:30:16;15.50;;;4.53;;
23228;SDS011;11783;50.350;6.576;2022-09-17T04:32:42;11.18;;;3.92;;
23228;SDS011;11783;50.350;6.576;2022-09-17T04:35:09;20.60;;;4.50;;
23228;SDS011;11783;50.350;6.576;2022-09-17T04:37:34;14.07;;;3.72;;
23228;SDS011;11783;50.350;6.576;2022-09-17T04:40:00;12.60;;;3.70;;
23228;SDS011;11783;50.350;6.576;2022-09-17T04:42:26;15.48;;;4.47;;
23228;SDS011;11783;50.350;6.576;2022-09-17T04:44:51;12.30;;;3.78;;
23228;SDS011;11783;50.350;6.576;2022-09-17T04:47:17;11.75;;;3.63;;
23228;SDS011;11783;50.350;6.576;2022-09-17T04:49:42;10.18;;;3.22;;
23228;SDS011;11783;50.350;6.576;2022-09-17T04:52:07;12.65;;;3.55;;
23228;SDS011;11783;50.350;6.576;2022-09-17T04:54:32;11.07;;;4.03;;
23228;SDS011;11783;50.350;6.576;2022-09-17T04:56:58;9.52;;;3.40;;
23228;SDS011;11783;50.350;6.576;2022-09-17T04:59:24;7.88;;;3.05;;
23228;SDS011;11783;50.350;6.576;2022-09-17T05:01:49;10.90;;;3.38;;
23228;SDS011;11783;50.350;6.576;2022-09-17T05:04:15;13.88;;;3.35;;
23228;SDS011;11783;50.350;6.576;2022-09-17T05:06:40;8.60;;;2.60;;
23228;SDS011;11783;50.350;6.576;2022-09-17T05:09:05;7.93;;;2.92;;
23228;SDS011;11783;50.350;6.576;2022-09-17T05:11:31;9.65;;;4.25;;
23228;SDS011;11783;50.350;6.576;2022-09-17T05:13:56;11.70;;;3.88;;
23228;SDS011;11783;50.350;6.576;2022-09-17T05:16:21;11.25;;;4.35;;
23228;SDS011;11783;50.350;6.576;2022-09-17T05:18:47;8.15;;;3.63;;
23228;SDS011;11783;50.350;6.576;2022-09-17T05:21:13;9.18;;;3.90;;
23228;SDS011;11783;50.350;6.576;2022-09-17T05:23:38;12.50;;;3.50;;
23228;SDS011;11783;50.350;6.576;2022-09-17T05:26:04;11.52;;;2.85;;
23228;SDS011;11783;50.350;6.576;2022-09-17T05:28:29;10.55;;;2.67;;
23228;SDS011;11783;50.350;6.576;2022-09-17T05:30:57;8.20;;;2.58;;
23228;SDS011;11783;50.350;6.576;2022-09-17T05:33:23;13.60;;;3.25;;
23228;SDS011;11783;50.350;6.576;2022-09-17T05:35:48;8.98;;;2.75;;
23228;SDS011;11783;50.350;6.576;2022-09-17T05:38:13;11.52;;;2.75;;
23228;SDS011;11783;50.350;6.576;2022-09-17T05:40:39;7.03;;;2.20;;
23228;SDS011;11783;50.350;6.576;2022-09-17T05:43:04;10.00;;;2.33;;
23228;SDS011;11783;50.350;6.576;2022-09-17T05:45:34;11.05;;;2.05;;
23228;SDS011;11783;50.350;6.576;2022-09-17T05:48:00;10.20;;;2.00;;
23228;SDS011;11783;50.350;6.576;2022-09-17T05:50:27;8.38;;;2.25;;
23228;SDS011;11783;50.350;6.576;2022-09-17T05:52:53;9.02;;;2.15;;
23228;SDS011;11783;50.350;6.576;2022-09-17T05:55:19;9.48;;;2.30;;
23228;SDS011;11783;50.350;6.576;2022-09-17T05:57:46;10.32;;;2.20;;
23228;SDS011;11783;50.350;6.576;2022-09-17T06:00:12;9.32;;;2.13;;
23228;SDS011;11783;50.350;6.576;2022-09-17T06:02:38;7.95;;;2.92;;
23228;SDS011;11783;50.350;6.576;2022-09-17T06:05:03;10.30;;;3.08;;
23228;SDS011;11783;50.350;6.576;2022-09-17T06:07:29;12.88;;;3.28;;
23228;SDS011;11783;50.350;6.576;2022-09-17T06:09:55;13.20;;;2.80;;
23228;SDS011;11783;50.350;6.576;2022-09-17T06:12:20;8.65;;;2.90;;
23228;SDS011;11783;50.350;6.576;2022-09-17T06:14:46;10.65;;;2.50;;
23228;SDS011;11783;50.350;6.576;2022-09-17T06:17:11;7.72;;;2.00;;
23228;SDS011;11783;50.350;6.576;2022-09-17T06:19:37;8.02;;;2.63;;
23228;SDS011;11783;50.350;6.576;2022-09-17T06:22:02;11.13;;;2.92;;
23228;SDS011;11783;50.350;6.576;2022-09-17T06:24:29;11.10;;;3.47;;
23228;SDS011;11783;50.350;6.576;2022-09-17T06:26:54;12.27;;;3.10;;
23228;SDS011;11783;50.350;6.576;2022-09-17T06:29:19;12.13;;;3.75;;
23228;SDS011;11783;50.350;6.576;2022-09-17T06:31:46;15.10;;;4.15;;
23228;SDS011;11783;50.350;6.576;2022-09-17T06:34:15;14.20;;;3.75;;
23228;SDS011;11783;50.350;6.576;2022-09-17T06:36:41;11.43;;;3.47;;
23228;SDS011;11783;50.350;6.576;2022-09-17T06:39:07;10.68;;;3.97;;
23228;SDS011;11783;50.350;6.576;2022-09-17T06:41:32;15.40;;;4.38;;
23228;SDS011;11783;50.350;6.576;2022-09-17T06:43:57;9.10;;;3.35;;
23228;SDS011;11783;50.350;6.576;2022-09-17T06:46:23;8.80;;;3.50;;
23228;SDS011;11783;50.350;6.576;2022-09-17T06:48:48;12.90;;;3.40;;
23228;SDS011;11783;50.350;6.576;2022-09-17T06:51:14;10.60;;;3.92;;
23228;SDS011;11783;50.350;6.576;2022-09-17T06:53:39;11.45;;;4.00;;
23228;SDS011;11783;50.350;6.576;2022-09-17T06:56:05;13.60;;;4.47;;
23228;SDS011;11783;50.350;6.576;2022-09-17T06:58:33;16.25;;;5.10;;
23228;SDS011;11783;50.350;6.576;2022-09-17T07:01:01;17.73;;;4.28;;
23228;SDS011;11783;50.350;6.576;2022-09-17T07:03:28;11.60;;;4.15;;
23228;SDS011;11783;50.350;6.576;2022-09-17T07:05:54;20.90;;;4.65;;
23228;SDS011;11783;50.350;6.576;2022-09-17T07:08:20;9.50;;;4.43;;
23228;SDS011;11783;50.350;6.576;2022-09-17T07:10:45;16.35;;;4.70;;
23228;SDS011;11783;50.350;6.576;2022-09-17T07:13:10;14.07;;;3.90;;
23228;SDS011;11783;50.350;6.576;2022-09-17T07:15:36;11.57;;;3.53;;
23228;SDS011;11783;50.350;6.576;2022-09-17T07:18:07;15.88;;;3.50;;
23228;SDS011;11783;50.350;6.576;2022-09-17T07:20:36;16.70;;;4.18;;
23228;SDS011;11783;50.350;6.576;2022-09-17T07:23:03;14.65;;;4.93;;
23228;SDS011;11783;50.350;6.576;2022-09-17T07:25:28;18.27;;;5.68;;
23228;SDS011;11783;50.350;6.576;2022-09-17T07:27:54;11.88;;;4.38;;
23228;SDS011;11783;50.350;6.576;2022-09-17T07:30:20;8.57;;;3.30;;
23228;SDS011;11783;50.350;6.576;2022-09-17T07:32:46;12.75;;;3.15;;
23228;SDS011;11783;50.350;6.576;2022-09-17T07:35:11;10.90;;;3.08;;
23228;SDS011;11783;50.350;6.576;2022-09-17T07:37:37;12.70;;;3.22;;
23228;SDS011;11783;50.350;6.576;2022-09-17T07:40:03;11.50;;;3.13;;
23228;SDS011;11783;50.350;6.576;2022-09-17T07:42:31;17.48;;;3.75;;
23228;SDS011;11783;50.350;6.576;2022-09-17T07:44:57;12.07;;;3.65;;
23228;SDS011;11783;50.350;6.576;2022-09-17T07:47:22;9.45;;;3.13;;
23228;SDS011;11783;50.350;6.576;2022-09-17T07:49:47;10.00;;;3.40;;
23228;SDS011;11783;50.350;6.576;2022-09-17T07:52:12;13.25;;;3.25;;
23228;SDS011;11783;50.350;6.576;2022-09-17T07:54:38;10.23;;;2.90;;
23228;SDS011;11783;50.350;6.576;2022-09-17T07:57:03;14.57;;;3.20;;
23228;SDS011;11783;50.350;6.576;2022-09-17T07:59:29;12.07;;;2.70;;
23228;SDS011;11783;50.350;6.576;2022-09-17T08:01:54;10.70;;;2.75;;
23228;SDS011;11783;50.350;6.576;2022-09-17T08:04:19;9.70;;;2.70;;
23228;SDS011;11783;50.350;6.576;2022-09-17T08:06:45;10.45;;;3.53;;
23228;SDS011;11783;50.350;6.576;2022-09-17T08:09:12;13.20;;;3.05;;
23228;SDS011;11783;50.350;6.576;2022-09-17T08:11:39;8.60;;;2.75;;
23228;SDS011;11783;50.350;6.576;2022-09-17T08:14:06;12.60;;;2.95;;
23228;SDS011;11783;50.350;6.576;2022-09-17T08:16:33;10.35;;;2.90;;
23228;SDS011;11783;50.350;6.576;2022-09-17T08:18:59;12.27;;;3.00;;
23228;SDS011;11783;50.350;6.576;2022-09-17T08:21:24;11.00;;;3.60;;
23228;SDS011;11783;50.350;6.576;2022-09-17T08:23:49;7.72;;;2.40;;
23228;SDS011;11783;50.350;6.576;2022-09-17T08:26:16;16.15;;;3.42;;
23228;SDS011;11783;50.350;6.576;2022-09-17T08:28:45;12.65;;;3.25;;
23228;SDS011;11783;50.350;6.576;2022-09-17T08:31:19;7.95;;;3.05;;
23228;SDS011;11783;50.350;6.576;2022-09-17T08:33:46;14.15;;;3.75;;
23228;SDS011;11783;50.350;6.576;2022-09-17T08:36:13;9.13;;;3.08;;
23228;SDS011;11783;50.350;6.576;2022-09-17T08:38:40;12.40;;;3.45;;
23228;SDS011;11783;50.350;6.576;2022-09-17T08:43:46;13.30;;;3.33;;
23228;SDS011;11783;50.350;6.576;2022-09-17T08:49:35;7.93;;;3.05;;
23228;SDS011;11783;50.350;6.576;2022-09-17T08:54:49;12.13;;;3.53;;
23228;SDS011;11783;50.350;6.576;2022-09-17T08:57:25;10.68;;;3.40;;
23228;SDS011;11783;50.350;6.576;2022-09-17T09:00:02;10.45;;;3.47;;
23228;SDS011;11783;50.350;6.576;2022-09-17T09:05:51;13.55;;;3.70;;
23228;SDS011;11783;50.350;6.576;2022-09-17T09:11:22;15.32;;;4.75;;
23228;SDS011;11783;50.350;6.576;2022-09-17T09:13:52;11.68;;;3.35;;
23228;SDS011;11783;50.350;6.576;2022-09-17T09:16:25;9.68;;;2.70;;
23228;SDS011;11783;50.350;6.576;2022-09-17T09:18:55;10.30;;;3.50;;
23228;SDS011;11783;50.350;6.576;2022-09-17T09:21:28;9.00;;;2.90;;
23228;SDS011;11783;50.350;6.576;2022-09-17T09:24:09;9.82;;;2.60;;
23228;SDS011;11783;50.350;6.576;2022-09-17T09:26:52;6.32;;;2.13;;
23228;SDS011;11783;50.350;6.576;2022-09-17T09:29:34;10.85;;;2.10;;
23228;SDS011;11783;50.350;6.576;2022-09-17T09:32:14;9.68;;;1.83;;
23228;SDS011;11783;50.350;6.576;2022-09-17T09:35:11;5.68;;;2.00;;
23228;SDS011;11783;50.350;6.576;2022-09-17T09:37:43;5.75;;;2.03;;
23228;SDS011;11783;50.350;6.576;2022-09-17T09:40:22;8.10;;;2.90;;
23228;SDS011;11783;50.350;6.576;2022-09-17T09:42:54;7.15;;;2.20;;
23228;SDS011;11783;50.350;6.576;2022-09-17T09:58:56;6.63;;;1.40;;
23228;SDS011;11783;50.350;6.576;2022-09-17T10:01:21;7.00;;;1.08;;
23228;SDS011;11783;50.350;6.576;2022-09-17T10:03:51;6.72;;;1.77;;
23228;SDS011;11783;50.350;6.576;2022-09-17T10:06:17;5.53;;;1.00;;
23228;SDS011;11783;50.350;6.576;2022-09-17T10:11:22;10.05;;;1.50;;
23228;SDS011;11783;50.350;6.576;2022-09-17T10:13:52;7.20;;;1.17;;
23228;SDS011;11783;50.350;6.576;2022-09-17T10:16:47;6.13;;;1.40;;
23228;SDS011;11783;50.350;6.576;2022-09-17T10:19:16;5.45;;;1.30;;
23228;SDS011;11783;50.350;6.576;2022-09-17T10:21:43;6.85;;;0.95;;
23228;SDS011;11783;50.350;6.576;2022-09-17T10:24:27;10.25;;;1.05;;
23228;SDS011;11783;50.350;6.576;2022-09-17T10:27:01;7.25;;;1.63;;
23228;SDS011;11783;50.350;6.576;2022-09-17T10:29:29;5.38;;;1.10;;
23228;SDS011;11783;50.350;6.576;2022-09-17T10:31:55;7.38;;;1.00;;
23228;SDS011;11783;50.350;6.576;2022-09-17T10:34:23;6.22;;;1.33;;
23228;SDS011;11783;50.350;6.576;2022-09-17T10:36:51;5.43;;;0.88;;
23228;SDS011;11783;50.350;6.576;2022-09-17T10:44:25;5.95;;;0.90;;
23228;SDS011;11783;50.350;6.576;2022-09-17T10:46:52;2.15;;;0.70;;
23228;SDS011;11783;50.350;6.576;2022-09-17T10:49:22;3.97;;;0.90;;
23228;SDS011;11783;50.350;6.576;2022-09-17T10:52:08;5.20;;;1.00;;
23228;SDS011;11783;50.350;6.576;2022-09-17T10:57:36;5.60;;;1.23;;
23228;SDS011;11783;50.350;6.576;2022-09-17T11:00:23;12.57;;;4.20;;
23228;SDS011;11783;50.350;6.576;2022-09-17T11:05:44;6.82;;;1.60;;
23228;SDS011;11783;50.350;6.576;2022-09-17T11:16:46;5.00;;;1.20;;
23228;SDS011;11783;50.350;6.576;2022-09-17T11:19:33;9.20;;;0.90;;
23228;SDS011;11783;50.350;6.576;2022-09-17T11:22:10;3.97;;;1.00;;
23228;SDS011;11783;50.350;6.576;2022-09-17T11:24:50;3.47;;;0.82;;
23228;SDS011;11783;50.350;6.576;2022-09-17T11:27:51;4.68;;;0.90;;
23228;SDS011;11783;50.350;6.576;2022-09-17T11:30:27;5.07;;;0.80;;
23228;SDS011;11783;50.350;6.576;2022-09-17T11:35:39;4.30;;;1.33;;
23228;SDS011;11783;50.350;6.576;2022-09-17T11:38:19;3.22;;;0.80;;
23228;SDS011;11783;50.350;6.576;2022-09-17T11:40:51;8.35;;;1.08;;
23228;SDS011;11783;50.350;6.576;2022-09-17T11:43:30;3.67;;;0.88;;
23228;SDS011;11783;50.350;6.576;2022-09-17T11:46:06;7.28;;;1.08;;
23228;SDS011;11783;50.350;6.576;2022-09-17T11:56:29;7.47;;;0.90;;
23228;SDS011;11783;50.350;6.576;2022-09-17T11:59:02;9.00;;;1.70;;
23228;SDS011;11783;50.350;6.576;2022-09-17T12:01:42;5.10;;;1.40;;
23228;SDS011;11783;50.350;6.576;2022-09-17T12:06:42;5.78;;;1.13;;
23228;SDS011;11783;50.350;6.576;2022-09-17T12:09:15;8.18;;;1.50;;
23228;SDS011;11783;50.350;6.576;2022-09-17T12:12:02;4.03;;;1.20;;
23228;SDS011;11783;50.350;6.576;2022-09-17T12:14:52;4.55;;;0.93;;
23228;SDS011;11783;50.350;6.576;2022-09-17T12:17:53;6.25;;;1.00;;
23228;SDS011;11783;50.350;6.576;2022-09-17T12:20:43;3.75;;;0.90;;
23228;SDS011;11783;50.350;6.576;2022-09-17T12:23:13;3.67;;;0.82;;
23228;SDS011;11783;50.350;6.576;2022-09-17T12:26:05;3.58;;;1.00;;
23228;SDS011;11783;50.350;6.576;2022-09-17T12:28:30;4.63;;;1.20;;
23228;SDS011;11783;50.350;6.576;2022-09-17T12:31:10;5.82;;;1.15;;
23228;SDS011;11783;50.350;6.576;2022-09-17T12:33:51;3.25;;;0.73;;
23228;SDS011;11783;50.350;6.576;2022-09-17T12:36:26;4.53;;;1.10;;
23228;SDS011;11783;50.350;6.576;2022-09-17T12:41:49;3.45;;;0.80;;
23228;SDS011;11783;50.350;6.576;2022-09-17T12:44:44;5.82;;;0.80;;
23228;SDS011;11783;50.350;6.576;2022-09-17T13:01:01;2.65;;;0.80;;
23228;SDS011;11783;50.350;6.576;2022-09-17T13:09:35;5.95;;;1.65;;
23228;SDS011;11783;50.350;6.576;2022-09-17T13:12:07;4.65;;;1.00;;
23228;SDS011;11783;50.350;6.576;2022-09-17T13:20:15;4.32;;;1.10;;
23228;SDS011;11783;50.350;6.576;2022-09-17T13:22:48;3.22;;;0.80;;
23228;SDS011;11783;50.350;6.576;2022-09-17T13:25:17;3.10;;;0.88;;
23228;SDS011;11783;50.350;6.576;2022-09-17T13:27:44;3.67;;;0.80;;
23228;SDS011;11783;50.350;6.576;2022-09-17T13:30:11;2.75;;;0.77;;
23228;SDS011;11783;50.350;6.576;2022-09-17T13:37:30;2.92;;;0.85;;
23228;SDS011;11783;50.350;6.576;2022-09-17T13:39:56;2.83;;;0.85;;
23228;SDS011;11783;50.350;6.576;2022-09-17T13:42:23;3.75;;;0.82;;
23228;SDS011;11783;50.350;6.576;2022-09-17T13:47:39;6.18;;;1.50;;
23228;SDS011;11783;50.350;6.576;2022-09-17T13:50:20;3.22;;;1.10;;
23228;SDS011;11783;50.350;6.576;2022-09-17T13:52:51;4.80;;;1.35;;
23228;SDS011;11783;50.350;6.576;2022-09-17T13:55:38;5.63;;;1.60;;
23228;SDS011;11783;50.350;6.576;2022-09-17T14:13:47;3.00;;;0.73;;
23228;SDS011;11783;50.350;6.576;2022-09-17T14:18:56;2.67;;;0.80;;
23228;SDS011;11783;50.350;6.576;2022-09-17T14:21:32;2.20;;;0.52;;
23228;SDS011;11783;50.350;6.576;2022-09-17T14:24:02;1.60;;;0.70;;
23228;SDS011;11783;50.350;6.576;2022-09-17T14:26:56;3.25;;;0.43;;
23228;SDS011;11783;50.350;6.576;2022-09-17T14:32:30;2.95;;;0.50;;
23228;SDS011;11783;50.350;6.576;2022-09-17T14:35:03;2.20;;;0.47;;
23228;SDS011;11783;50.350;6.576;2022-09-17T14:37:38;3.47;;;0.50;;
23228;SDS011;11783;50.350;6.576;2022-09-17T14:40:07;2.13;;;0.50;;
23228;SDS011;11783;50.350;6.576;2022-09-17T14:42:35;3.55;;;0.85;;
23228;SDS011;11783;50.350;6.576;2022-09-17T14:45:06;4.28;;;1.20;;
23228;SDS011;11783;50.350;6.576;2022-09-17T14:47:40;1.98;;;0.70;;
23228;SDS011;11783;50.350;6.576;2022-09-17T14:50:22;2.70;;;0.98;;
23228;SDS011;11783;50.350;6.576;2022-09-17T14:52:49;1.92;;;0.80;;
23228;SDS011;11783;50.350;6.576;2022-09-17T14:55:22;2.67;;;0.73;;
23228;SDS011;11783;50.350;6.576;2022-09-17T14:57:57;5.53;;;0.98;;
23228;SDS011;11783;50.350;6.576;2022-09-17T15:00:32;3.47;;;0.90;;
23228;SDS011;11783;50.350;6.576;2022-09-17T15:02:59;5.10;;;1.13;;
23228;SDS011;11783;50.350;6.576;2022-09-17T15:05:34;3.13;;;0.90;;
23228;SDS011;11783;50.350;6.576;2022-09-17T15:08:10;3.03;;;0.80;;
23228;SDS011;11783;50.350;6.576;2022-09-17T15:10:59;2.05;;;0.57;;
23228;SDS011;11783;50.350;6.576;2022-09-17T15:13:43;2.55;;;0.90;;
23228;SDS011;11783;50.350;6.576;2022-09-17T15:18:50;3.90;;;0.80;;
23228;SDS011;11783;50.350;6.576;2022-09-17T15:21:35;4.57;;;0.98;;
23228;SDS011;11783;50.350;6.576;2022-09-17T15:26:39;3.97;;;0.80;;
23228;SDS011;11783;50.350;6.576;2022-09-17T15:29:09;3.28;;;0.70;;
23228;SDS011;11783;50.350;6.576;2022-09-17T15:31:36;4.80;;;1.05;;
23228;SDS011;11783;50.350;6.576;2022-09-17T15:34:02;4.85;;;0.82;;
23228;SDS011;11783;50.350;6.576;2022-09-17T15:36:27;3.90;;;0.70;;
23228;SDS011;11783;50.350;6.576;2022-09-17T15:38:54;7.03;;;1.23;;
23228;SDS011;11783;50.350;6.576;2022-09-17T15:41:24;5.57;;;1.42;;
23228;SDS011;11783;50.350;6.576;2022-09-17T15:43:51;7.03;;;1.80;;
23228;SDS011;11783;50.350;6.576;2022-09-17T15:46:20;4.75;;;1.48;;
23228;SDS011;11783;50.350;6.576;2022-09-17T15:48:50;7.55;;;1.80;;
23228;SDS011;11783;50.350;6.576;2022-09-17T15:51:23;5.32;;;1.88;;
23228;SDS011;11783;50.350;6.576;2022-09-17T15:54:00;7.40;;;2.20;;
23228;SDS011;11783;50.350;6.576;2022-09-17T15:56:29;7.47;;;1.50;;
23228;SDS011;11783;50.350;6.576;2022-09-17T15:59:02;6.68;;;1.30;;
23228;SDS011;11783;50.350;6.576;2022-09-17T16:11:21;5.15;;;1.10;;
23228;SDS011;11783;50.350;6.576;2022-09-17T16:13:48;7.63;;;1.30;;
23228;SDS011;11783;50.350;6.576;2022-09-17T16:16:19;7.15;;;1.60;;
23228;SDS011;11783;50.350;6.576;2022-09-17T16:21:13;12.32;;;1.50;;
23228;SDS011;11783;50.350;6.576;2022-09-17T16:23:40;9.77;;;1.55;;
23228;SDS011;11783;50.350;6.576;2022-09-17T16:26:06;10.90;;;1.70;;
23228;SDS011;11783;50.350;6.576;2022-09-17T16:28:37;12.15;;;1.80;;
23228;SDS011;11783;50.350;6.576;2022-09-17T16:31:04;5.03;;;1.80;;
23228;SDS011;11783;50.350;6.576;2022-09-17T16:33:30;7.60;;;1.35;;
23228;SDS011;11783;50.350;6.576;2022-09-17T16:35:55;7.97;;;2.08;;
23228;SDS011;11783;50.350;6.576;2022-09-17T16:38:22;11.32;;;1.80;;
23228;SDS011;11783;50.350;6.576;2022-09-17T16:40:47;8.20;;;2.00;;
23228;SDS011;11783;50.350;6.576;2022-09-17T16:43:12;6.15;;;1.85;;
23228;SDS011;11783;50.350;6.576;2022-09-17T16:45:38;11.80;;;2.20;;
23228;SDS011;11783;50.350;6.576;2022-09-17T16:48:03;7.38;;;2.08;;
23228;SDS011;11783;50.350;6.576;2022-09-17T16:50:29;6.25;;;1.58;;
23228;SDS011;11783;50.350;6.576;2022-09-17T16:52:55;8.45;;;1.95;;
23228;SDS011;11783;50.350;6.576;2022-09-17T16:55:20;8.60;;;1.92;;
23228;SDS011;11783;50.350;6.576;2022-09-17T16:57:46;5.65;;;1.48;;
23228;SDS011;11783;50.350;6.576;2022-09-17T17:00:12;9.55;;;2.22;;
23228;SDS011;11783;50.350;6.576;2022-09-17T17:02:41;12.50;;;2.00;;
23228;SDS011;11783;50.350;6.576;2022-09-17T17:05:07;8.50;;;1.58;;
23228;SDS011;11783;50.350;6.576;2022-09-17T17:07:34;10.73;;;1.92;;
23228;SDS011;11783;50.350;6.576;2022-09-17T17:10:05;10.25;;;2.63;;
23228;SDS011;11783;50.350;6.576;2022-09-17T17:12:32;7.10;;;2.17;;
23228;SDS011;11783;50.350;6.576;2022-09-17T17:14:58;9.27;;;2.08;;
23228;SDS011;11783;50.350;6.576;2022-09-17T17:17:23;10.00;;;1.80;;
23228;SDS011;11783;50.350;6.576;2022-09-17T17:19:48;9.30;;;1.95;;
23228;SDS011;11783;50.350;6.576;2022-09-17T17:22:14;11.05;;;2.28;;
23228;SDS011;11783;50.350;6.576;2022-09-17T17:24:40;5.65;;;1.80;;
23228;SDS011;11783;50.350;6.576;2022-09-17T17:27:05;6.38;;;1.90;;
23228;SDS011;11783;50.350;6.576;2022-09-17T17:29:32;9.10;;;2.42;;
23228;SDS011;11783;50.350;6.576;2022-09-17T17:31:59;12.02;;;2.60;;
23228;SDS011;11783;50.350;6.576;2022-09-17T17:34:24;10.98;;;2.42;;
23228;SDS011;11783;50.350;6.576;2022-09-17T17:36:50;10.35;;;2.63;;
23228;SDS011;11783;50.350;6.576;2022-09-17T17:39:15;11.75;;;2.50;;
23228;SDS011;11783;50.350;6.576;2022-09-17T17:41:41;12.55;;;2.42;;
23228;SDS011;11783;50.350;6.576;2022-09-17T17:44:07;11.52;;;2.20;;
23228;SDS011;11783;50.350;6.576;2022-09-17T17:46:36;12.82;;;2.58;;
23228;SDS011;11783;50.350;6.576;2022-09-17T17:49:02;8.60;;;2.45;;